Flight Track Log - Related Links

Times and Time Zones

All times are in EDT time to prevent confusion due to time zone crossing. See the UAL1177 flight status page for this flight to view local times or setup timezone preferences in your user account.

Time Position Orientation Groundspeed Altitude Reporting Facility
EDT Latitude Longitude Course Direction KTS MPH feet Rate Location/Type
Fri 09:10:48 PM 39.8610 -104.6800 303° West 18 21  Level FlightAware ADS-B
Fri 09:14:09 PM 39.8955 -104.6870 360° North 187 215 5,700 1,743 Climbing FlightAware ADS-B
Fri 09:14:18 PM 39.9027 -104.6870 360° North 185 213 6,100 2,769 Climbing FlightAware ADS-B
Fri 09:14:22 PM 39.9068 -104.6870 360° North 187 215 6,300 1,500 Climbing FlightAware ADS-B
Fri 09:14:38 PM 39.9207 -104.6880 357° North 200 230 6,600 1,304 Climbing FlightAware ADS-B
Fri 09:14:45 PM 39.9278 -104.6890 354° North 208 239 6,800 1,636 Climbing FlightAware ADS-B
Fri 09:14:49 PM 39.9310 -104.6900 347° North 212 244 6,900 857 Climbing FlightAware ADS-B
Fri 09:14:52 PM 39.9347 -104.6910 348° North 220 253 6,900 1,091 Level FlightAware ADS-B
Fri 09:15:00 PM 39.9420 -104.6940 343° North 227 261 7,100 1,200 Climbing FlightAware ADS-B
Fri 09:15:07 PM 39.9493 -104.6970 343° North 234 269 7,200 1,565 Climbing FlightAware ADS-B
Fri 09:15:23 PM 39.9671 -104.7030 346° North 244 281 7,700 2,323 Climbing FlightAware ADS-B
Fri 09:15:38 PM 39.9837 -104.7090 345° North 243 280 8,400 2,308 Climbing FlightAware ADS-B
Fri 09:15:49 PM 39.9951 -104.7130 345° North 247 284 8,700 1,429 Climbing FlightAware ADS-B
Fri 09:15:59 PM 40.0068 -104.7170 345° North 260 299 8,900 1,200 Climbing FlightAware ADS-B
Fri 09:16:14 PM 40.0247 -104.7260 339° North 274 315 9,200 1,400 Climbing FlightAware ADS-B
Fri 09:16:29 PM 40.0422 -104.7340 341° North 287 330 9,600 1,867 Climbing FlightAware ADS-B
Fri 09:16:59 PM 40.0818 -104.7510 342° North 299 344 10,600 2,100 Climbing FlightAware ADS-B
Fri 09:17:29 PM 40.1217 -104.7700 340° North 306 352 11,700 2,300 Climbing FlightAware ADS-B
Fri 09:17:59 PM 40.1621 -104.7890 340° North 313 360 12,900 2,500 Climbing FlightAware ADS-B
Fri 09:18:29 PM 40.2036 -104.8070 342° North 315 362 14,200 2,344 Climbing FlightAware ADS-B
Fri 09:19:03 PM 40.2502 -104.8290 340° North 325 374 15,400 1,500 Climbing FlightAware ADS-B
Fri 09:19:33 PM 40.2968 -104.8510 340° North 357 411 15,800 1,300 Climbing FlightAware ADS-B
Fri 09:20:03 PM 40.3468 -104.8730 341° North 381 438 16,700 2,459 Climbing FlightAware ADS-B
Fri 09:20:34 PM 40.3960 -104.8960 340° North 370 426 18,300 2,557 Climbing FlightAware ADS-B
Fri 09:21:04 PM 40.4455 -104.9190 341° North 381 438 19,300 2,000 Climbing FlightAware ADS-B
Fri 09:21:34 PM 40.4965 -104.9440 340° North 391 450 20,300 1,869 Climbing FlightAware ADS-B
Fri 09:22:05 PM 40.5500 -104.9690 340° North 401 461 21,200 1,869 Climbing FlightAware ADS-B
Fri 09:22:35 PM 40.6036 -104.9940 341° North 408 470 22,200 2,190 Climbing FlightAware ADS-B
Fri 09:23:08 PM 40.6618 -105.0200 341° North 407 468 23,500 2,215 Climbing FlightAware ADS-B
Fri 09:23:40 PM 40.7179 -105.0460 341° North 407 468 24,600 2,093 Climbing FlightAware ADS-B
Fri 09:23:51 PM 40.7376 -105.0560 339° North 406 467 25,000 1,909 Climbing FlightAware ADS-B
Fri 09:24:02 PM 40.7562 -105.0680 334° Northwest 403 464 25,300 1,556 Climbing FlightAware ADS-B
Fri 09:24:18 PM 40.7809 -105.0880 328° Northwest 401 461 25,700 1,579 Climbing FlightAware ADS-B
Fri 09:24:21 PM 40.7864 -105.0930 325° Northwest 400 460 25,800 2,000 Climbing FlightAware ADS-B
Fri 09:24:30 PM 40.7996 -105.1070 321° Northwest 399 459 26,100 1,463 Climbing FlightAware ADS-B
Fri 09:25:02 PM 40.8435 -105.1570 319° Northwest 403 464 26,800 1,425 Climbing FlightAware ADS-B
Fri 09:25:50 PM 40.9130 -105.2350 320° Northwest 411 473 28,000 1,400 Climbing FlightAware ADS-B
Fri 09:26:32 PM 40.9720 -105.3020 319° Northwest 419 482 28,900 1,286 Climbing FlightAware ADS-B
Fri 09:27:14 PM 41.0370 -105.3770 319° Northwest 426 490 29,800 1,143 Climbing FlightAware ADS-B
Fri 09:27:56 PM 41.0980 -105.4460 320° Northwest 433 498 30,500 1,034 Climbing FlightAware ADS-B
Fri 09:28:41 PM 41.1690 -105.5270 319° Northwest 438 504 31,300 977 Climbing FlightAware ADS-B
Fri 09:29:22 PM 41.2300 -105.5970 319° Northwest 441 507 31,900 1,037 Climbing FlightAware ADS-B
Fri 09:30:02 PM 41.2930 -105.6690 319° Northwest 438 504 32,700 1,317 Climbing FlightAware ADS-B
Fri 09:30:44 PM 41.3450 -105.7550 309° West 417 480 33,700 1,143 Climbing FlightAware ADS-B
Fri 09:31:26 PM 41.3720 -105.8550 290° West 414 476 34,300 929 Climbing FlightAware ADS-B
Fri 09:32:08 PM 41.3980 -105.9550 289° West 416 479 35,000 929 Climbing FlightAware ADS-B
Fri 09:32:50 PM 41.4240 -106.0570 289° West 417 480 35,600 698 Climbing FlightAware ADS-B
Fri 09:33:34 PM 41.4510 -106.1640 289° West 415 478 36,000 235 Climbing FlightAware ADS-B
Fri 09:34:32 PM 41.4820 -106.2890 288° West 416 479 36,000  Level FlightAware ADS-B
Fri 09:35:10 PM 41.5080 -106.3950 288° West 418 481 36,000  Level FlightAware ADS-B
Fri 09:35:49 PM 41.5280 -106.4770 288° West 418 481 36,000  Level FlightAware ADS-B
Fri 09:36:37 PM 41.5530 -106.5770 289° West 418 481 36,000  Level FlightAware ADS-B
Fri 09:37:13 PM 41.5710 -106.6520 288° West 418 481 36,000  Level FlightAware ADS-B
Fri 09:38:02 PM 41.5960 -106.7550 288° West 418 481 36,000  Level FlightAware ADS-B
Fri 09:38:39 PM 41.6150 -106.8320 288° West 418 481 36,000  Level FlightAware ADS-B
Fri 09:39:16 PM 41.6330 -106.9090 287° West 418 481 36,000  Level FlightAware ADS-B
Fri 09:40:06 PM 41.6590 -107.0140 288° West 418 481 36,000  Level FlightAware ADS-B
Fri 09:40:44 PM 41.6780 -107.0930 288° West 418 481 36,000  Level FlightAware ADS-B
Fri 09:41:32 PM 41.7020 -107.1940 288° West 418 481 36,000  Level FlightAware ADS-B
Fri 09:42:09 PM 41.7210 -107.2710 288° West 418 481 36,000  Level FlightAware ADS-B
Fri 09:43:09 PM 41.7520 -107.3970 288° West 418 481 36,000  Level FlightAware ADS-B
Fri 09:43:45 PM 41.7700 -107.4730 288° West 418 481 36,000  Level FlightAware ADS-B
Fri 09:44:46 PM 41.8010 -107.6010 288° West 418 481 36,000  Level FlightAware ADS-B
Fri 09:45:16 PM 41.8603 -107.8400 288° West 407 468 36,000  Level Denver Center
Fri 09:45:43 PM 41.8764 -107.9094 287° West 406 467 36,000  Level Salt Lake Center
Fri 09:46:45 PM 41.9114 -108.0689 286° West 401 461 36,000  Level Salt Lake Center
Fri 09:47:46 PM 41.9472 -108.2108 289° West 415 478 36,000  Level Salt Lake Center
Fri 09:48:48 PM 41.9836 -108.3736 287° West 411 473 36,000  Level Salt Lake Center
Fri 09:49:49 PM 42.0156 -108.5119 287° West 408 470 36,000  Level Salt Lake Center
Fri 09:50:51 PM 42.0522 -108.6736 287° West 407 468 36,000  Level Salt Lake Center
Fri 09:51:52 PM 42.0825 -108.8122 286° West 406 467 36,000  Level Salt Lake Center
Fri 09:52:53 PM 42.1128 -108.9486 287° West 403 464 36,000  Level Salt Lake Center
Fri 09:53:55 PM 42.1489 -109.1100 287° West 403 464 36,000  Level Salt Lake Center
Fri 09:54:56 PM 42.1783 -109.2475 286° West 402 463 36,000  Level Salt Lake Center
Fri 09:55:58 PM 42.2133 -109.4094 286° West 404 465 36,000  Level Salt Lake Center
Fri 09:56:59 PM 42.2442 -109.5489 287° West 406 467 36,000  Level Salt Lake Center
Fri 09:58:01 PM 42.2792 -109.7136 286° West 409 471 36,000  Level Salt Lake Center
Fri 09:59:02 PM 42.3097 -109.8556 286° West 411 473 36,000  Level Salt Lake Center
Fri 10:00:04 PM 42.3397 -109.9958 286° West 408 470 36,000  Level Salt Lake Center
Fri 10:01:05 PM 42.3742 -110.1594 286° West 407 468 36,000  Level Salt Lake Center
Fri 10:02:07 PM 42.4036 -110.2978 286° West 402 463 36,000  Level Salt Lake Center
Fri 10:03:08 PM 42.4378 -110.4597 286° West 403 464 36,000  Level Salt Lake Center
Fri 10:04:10 PM 42.4667 -110.5981 286° West 400 460 36,000  Level Salt Lake Center
Fri 10:05:11 PM 42.4997 -110.7617 285° West 404 465 36,000  Level Salt Lake Center
Fri 10:06:13 PM 42.5297 -110.9036 286° West 408 470 36,000  Level Salt Lake Center
Fri 10:07:14 PM 42.5581 -111.0511 285° West 408 470 36,000  Level Salt Lake Center
Fri 10:08:15 PM 42.5883 -111.1981 286° West 407 468 36,000  Level Salt Lake Center
Fri 10:09:17 PM 42.6175 -111.3422 285° West 402 463 36,000  Level Salt Lake Center
Fri 10:10:18 PM 42.6447 -111.4886 284° West 401 461 36,000  Level Salt Lake Center
Fri 10:11:20 PM 42.6794 -111.6658 285° West 405 466 36,000  Level Salt Lake Center
Fri 10:12:21 PM 42.7064 -111.7950 286° West 404 465 36,000  Level Salt Lake Center
Fri 10:13:23 PM 42.7381 -111.9600 285° West 404 465 36,000  Level Salt Lake Center
Fri 10:14:24 PM 42.7669 -112.1011 286° West 404 465 36,000  Level Salt Lake Center
Fri 10:15:26 PM 42.7972 -112.2636 284° West 399 459 36,000  Level Salt Lake Center
Fri 10:16:27 PM 42.8236 -112.4044 284° West 400 460 36,000  Level Salt Lake Center
Fri 10:17:29 PM 42.8503 -112.5439 285° West 399 459 36,000  Level Salt Lake Center
Fri 10:18:30 PM 42.8842 -112.7050 286° West 398 458 36,000  Level Salt Lake Center
Fri 10:19:32 PM 42.9247 -112.8397 292° West 402 463 36,000  Level Salt Lake Center
Fri 10:20:33 PM 42.9703 -112.9964 292° West 398 458 36,000  Level Salt Lake Center
Fri 10:21:35 PM 43.0075 -113.1289 291° West 392 451 36,000  Level Salt Lake Center
Fri 10:22:36 PM 43.0475 -113.2675 292° West 404 465 36,000  Level Salt Lake Center
Fri 10:23:38 PM 43.0925 -113.4261 291° West 402 463 36,000  Level Salt Lake Center
Fri 10:24:40 PM 43.1325 -113.5622 292° West 403 464 36,000  Level Salt Lake Center
Fri 10:25:41 PM 43.1897 -113.7239 296° West 417 480 36,000  Level Salt Lake Center
Fri 10:26:43 PM 43.2403 -113.8753 295° West 420 483 36,000  Level Salt Lake Center
Fri 10:27:44 PM 43.2908 -114.0203 296° West 419 482 36,000  Level Salt Lake Center
Fri 10:28:46 PM 43.3367 -114.1567 295° West 412 474 36,000  Level Salt Lake Center
Fri 10:29:47 PM 43.3892 -114.3156 294° West 409 471 36,000  Level Salt Lake Center
Fri 10:30:49 PM 43.4344 -114.4506 295° West 405 466 36,000  Level Salt Lake Center
Fri 10:31:50 PM 43.4806 -114.5858 295° West 407 468 36,000  Level Salt Lake Center
Fri 10:32:52 PM 43.5331 -114.7428 295° West 405 466 36,000  Level Salt Lake Center
Fri 10:33:53 PM 43.5781 -114.8789 295° West 408 470 36,000  Level Salt Lake Center
Fri 10:34:55 PM 43.6308 -115.0369 295° West 408 470 36,000  Level Salt Lake Center
Fri 10:35:56 PM 43.6747 -115.1750 294° West 410 472 36,000  Level Salt Lake Center
Fri 10:36:58 PM 43.7197 -115.3128 294° West 413 475 36,000  Level Salt Lake Center
Fri 10:37:59 PM 43.7717 -115.4736 294° West 411 473 36,000  Level Salt Lake Center
Fri 10:39:01 PM 43.8167 -115.6114 294° West 411 473 36,000  Level Salt Lake Center
Fri 10:40:03 PM 43.8683 -115.7733 294° West 412 474 36,000  Level Salt Lake Center
Fri 10:41:04 PM 43.9119 -115.9114 294° West 408 470 36,000  Level Salt Lake Center
Fri 10:42:06 PM 43.9556 -116.0494 294° West 406 467 36,000  Level Salt Lake Center
Fri 10:43:07 PM 44.0069 -116.2092 294° West 405 466 36,000  Level Salt Lake Center
Fri 10:44:09 PM 44.0497 -116.3483 293° West 407 468 36,000  Level Salt Lake Center
Fri 10:45:10 PM 44.0997 -116.5089 293° West 404 465 36,000  Level Salt Lake Center
Fri 10:46:12 PM 44.1417 -116.6453 293° West 399 459 36,000  Level Salt Lake Center
Fri 10:47:14 PM 44.1833 -116.7797 293° West 393 452 36,000  Level Salt Lake Center
Fri 10:48:15 PM 44.2317 -116.9378 293° West 394 453 36,000  Level Salt Lake Center
Fri 10:49:17 PM 44.2736 -117.0764 293° West 401 461 36,000  Level Salt Lake Center
Fri 10:50:18 PM 44.3167 -117.2164 293° West 406 467 36,000  Level Salt Lake Center
Fri 10:51:20 PM 44.3661 -117.3822 293° West 413 475 36,000  Level Salt Lake Center
Fri 10:52:21 PM 44.4092 -117.5231 293° West 411 473 36,000  Level Salt Lake Center
Fri 10:53:14 PM 44.4511 -117.6661 292° West 413 475 36,000  Level Seattle Center
Fri 10:54:14 PM 44.4939 -117.8069 293° West 411 473 36,000  Level Seattle Center
Fri 10:55:15 PM 44.5339 -117.9464 292° West 405 466 36,000  Level Seattle Center
Fri 10:56:16 PM 44.5817 -118.1072 293° West 401 461 36,000  Level Seattle Center
Fri 10:57:17 PM 44.6200 -118.2406 292° West 399 459 36,000  Level Seattle Center
Fri 10:58:17 PM 44.6617 -118.3847 292° West 400 460 36,000  Level Seattle Center
Fri 10:59:18 PM 44.7025 -118.5283 292° West 399 459 36,000  Level Seattle Center
Fri 11:00:19 PM 44.7442 -118.6736 292° West 401 461 36,000  Level Seattle Center
Fri 11:01:19 PM 44.7867 -118.8194 292° West 402 463 36,000  Level Seattle Center
Fri 11:02:20 PM 44.8286 -118.9650 292° West 403 464 36,000  Level Seattle Center
Fri 11:03:21 PM 44.8692 -119.1139 291° West 406 467 36,000  Level Seattle Center
Fri 11:04:22 PM 44.9100 -119.2617 291° West 406 467 36,000  Level Seattle Center
Fri 11:05:22 PM 44.9503 -119.4086 291° West 405 466 36,000  Level Seattle Center
Fri 11:06:23 PM 44.9997 -119.5844 292° West 405 466 36,000 -106 Level Seattle Center
Fri 11:11:59 PM 45.1760 -120.2370 292° West 404 465 35,300 -109 Descending FlightAware ADS-B
Fri 11:12:50 PM 45.2030 -120.3450 290° West 404 465 35,300  Level FlightAware ADS-B
Fri 11:13:27 PM 45.2230 -120.4230 290° West 404 465 35,300  Level FlightAware ADS-B
Fri 11:14:28 PM 45.2560 -120.5530 290° West 404 465 35,300  Level FlightAware ADS-B
Fri 11:15:04 PM 45.2760 -120.6290 291° West 404 465 35,300  Level FlightAware ADS-B
Fri 11:15:42 PM 45.2970 -120.7100 290° West 404 465 35,300  Level FlightAware ADS-B
Fri 11:16:30 PM 45.3230 -120.8120 290° West 404 465 35,300  Level FlightAware ADS-B
Fri 11:17:07 PM 45.3430 -120.8900 290° West 404 465 35,300  Level FlightAware ADS-B
Fri 11:17:55 PM 45.3690 -120.9920 290° West 404 465 35,300  Level FlightAware ADS-B
Fri 11:18:32 PM 45.3890 -121.0710 290° West 404 465 35,300  Level FlightAware ADS-B
Fri 11:19:21 PM 45.4160 -121.1750 290° West 404 465 35,300  Level FlightAware ADS-B
Fri 11:19:57 PM 45.4350 -121.2520 289° West 404 465 35,300  Level FlightAware ADS-B
Fri 11:20:37 PM 45.4570 -121.3370 290° West 404 465 35,300  Level FlightAware ADS-B
Fri 11:21:25 PM 45.4830 -121.4390 290° West 404 465 35,300 -16,828 Level FlightAware ADS-B
Fri 11:22:04 PM 45.4994 -121.7786 290° West 320 368 10,900 -21,739 Descending Seattle Center
Fri 11:22:34 PM 45.5033 -121.8278 276° West 318 366 10,300 -1,000 Descending Seattle Center
Fri 11:23:10 PM 45.5136 -121.9086 280° West 296 341 9,800 -984 Descending Seattle Center
Fri 11:23:35 PM 45.5139 -121.9492 271° West 294 338 9,300 -1,475 Descending Seattle Center
Fri 11:24:11 PM 45.5117 -122.0144 267° West 264 304 8,300 -1,672 Descending Seattle Center
Fri 11:24:36 PM 45.5114 -122.0531 269° West 266 306 7,600 -1,765 Descending Seattle Center
Fri 11:25:36 PM 45.5133 -122.1578 272° West 266 306 5,800 -1,438 Descending Seattle Center
Fri 11:26:12 PM 45.5117 -122.2244 268° West 252 290 5,300 -885 Descending Seattle Center
Fri 11:26:37 PM 45.5139 -122.2553 276° West 255 293 4,900 -960 Descending Seattle Center

Login

Don't have an account? Register now (free) for customized features, flight alerts, and more!